createdAt,value
2018-04-11T00:02:18.205Z,32.00
2018-04-11T00:04:45.693Z,35.33
2018-04-11T00:07:13.195Z,30.87
2018-04-11T00:09:41.088Z,31.67
2018-04-11T00:12:08.582Z,30.10
2018-04-11T00:14:36.059Z,32.73
2018-04-11T00:17:03.557Z,35.90
2018-04-11T00:19:31.054Z,31.83
2018-04-11T00:21:58.548Z,33.83
2018-04-11T00:24:26.434Z,32.00
2018-04-11T00:26:53.918Z,32.67
2018-04-11T00:29:21.418Z,35.03
2018-04-11T00:31:48.907Z,32.40
2018-04-11T00:34:16.423Z,35.23
2018-04-11T00:36:43.914Z,34.63
2018-04-11T00:39:11.438Z,36.93
2018-04-11T00:41:38.961Z,34.63
2018-04-11T00:44:06.434Z,30.20
2018-04-11T00:46:33.930Z,33.97
2018-04-11T00:49:01.818Z,39.33
2018-04-11T00:51:29.314Z,32.10
2018-04-11T00:53:56.833Z,35.23
2018-04-11T00:56:24.315Z,35.33
2018-04-11T00:58:51.811Z,29.97
2018-04-11T01:01:19.314Z,32.13
2018-04-11T01:03:46.791Z,34.40
2018-04-11T01:06:14.302Z,35.60
2018-04-11T01:08:42.231Z,34.23
2018-04-11T01:11:09.712Z,33.47
2018-04-11T01:13:37.219Z,34.40
2018-04-11T01:16:04.709Z,36.00
2018-04-11T01:18:32.201Z,35.30
2018-04-11T01:20:59.697Z,33.67
2018-04-11T01:23:27.203Z,35.10
2018-04-11T01:25:55.089Z,36.23
2018-04-11T01:28:22.588Z,36.57
2018-04-11T01:30:50.063Z,31.10
2018-04-11T01:33:17.549Z,35.33
2018-04-11T01:35:45.070Z,34.50
2018-04-11T01:38:12.570Z,33.20
2018-04-11T01:40:40.468Z,35.13
2018-04-11T01:43:07.952Z,36.97
2018-04-11T01:45:35.441Z,31.60
2018-04-11T01:48:03.319Z,34.47
2018-04-11T01:50:30.811Z,38.10
2018-04-11T01:52:58.280Z,33.20
2018-04-11T01:55:25.767Z,35.43
2018-04-11T01:57:53.254Z,35.23
2018-04-11T02:00:20.753Z,37.07
2018-04-11T02:02:48.257Z,30.93
2018-04-11T02:05:16.141Z,37.40
2018-04-11T02:07:43.616Z,31.73
2018-04-11T02:10:11.126Z,32.60
2018-04-11T02:12:39.006Z,34.13
2018-04-11T02:15:06.492Z,35.57
2018-04-11T02:17:33.985Z,38.03
2018-04-11T02:20:01.477Z,36.80
2018-04-11T02:22:28.963Z,36.00
2018-04-11T02:24:56.455Z,31.87
2018-04-11T02:27:23.931Z,35.37
2018-04-11T02:29:51.796Z,30.93
2018-04-11T02:32:19.686Z,37.67
2018-04-11T02:34:47.156Z,35.90
2018-04-11T02:37:14.635Z,35.43
2018-04-11T02:39:42.111Z,33.27
2018-04-11T02:42:09.614Z,37.50
2018-04-11T02:44:37.093Z,36.47
2018-04-11T02:47:04.591Z,33.50
2018-04-11T02:49:32.086Z,35.47
2018-04-11T02:51:59.584Z,37.67
2018-04-11T02:54:27.066Z,33.17
2018-04-11T02:56:54.966Z,33.10
2018-04-11T02:59:22.451Z,32.67
2018-04-11T03:01:49.955Z,37.07
2018-04-11T03:04:17.852Z,35.17
2018-04-11T03:06:45.359Z,35.80
2018-04-11T03:09:12.849Z,36.40
2018-04-11T03:11:40.749Z,36.07
2018-04-11T03:14:08.239Z,36.93
2018-04-11T03:16:35.743Z,39.27
2018-04-11T03:19:03.229Z,36.13
2018-04-11T03:21:30.715Z,34.80
2018-04-11T03:23:58.203Z,31.73
2018-04-11T03:26:26.107Z,33.97
2018-04-11T03:28:53.587Z,34.60
2018-04-11T03:31:21.086Z,35.47
2018-04-11T03:33:48.584Z,38.87
2018-04-11T03:36:16.056Z,33.47
2018-04-11T03:38:43.542Z,35.83
2018-04-11T03:41:11.411Z,35.17
2018-04-11T03:43:39.319Z,37.40
2018-04-11T03:46:06.806Z,31.30
2018-04-11T03:48:34.300Z,38.23
2018-04-11T03:51:02.202Z,39.00
2018-04-11T03:53:29.680Z,33.83
2018-04-11T03:55:57.188Z,34.37
2018-04-11T03:58:24.667Z,37.03
2018-04-11T04:00:52.207Z,38.20
2018-04-11T04:03:19.698Z,38.27
2018-04-11T04:05:47.168Z,38.10
2018-04-11T04:08:14.647Z,35.60
2018-04-11T04:10:42.538Z,31.37
2018-04-11T04:13:10.039Z,35.73
2018-04-11T04:15:49.470Z,36.77
2018-04-11T04:18:28.991Z,33.30
2018-04-11T04:20:57.329Z,32.50
2018-04-11T04:23:25.227Z,36.20
2018-04-11T04:25:52.718Z,34.27
2018-04-11T04:28:20.190Z,36.13
2018-04-11T04:30:47.685Z,37.80
2018-04-11T04:33:15.197Z,39.70
2018-04-11T04:35:42.691Z,32.97
2018-04-11T04:38:10.581Z,39.60
2018-04-11T04:40:38.120Z,34.63
2018-04-11T04:43:05.567Z,37.30
2018-04-11T04:45:33.439Z,32.03
2018-04-11T04:48:01.334Z,35.27
2018-04-11T04:50:28.819Z,41.13
2018-04-11T04:52:56.321Z,37.37
2018-04-11T04:55:24.190Z,38.10
2018-04-11T04:57:51.686Z,38.07
2018-04-11T05:00:19.178Z,34.53
2018-04-11T05:02:47.086Z,37.93
2018-04-11T05:05:14.561Z,37.47
2018-04-11T05:07:42.080Z,36.73
2018-04-11T05:10:09.951Z,38.50
2018-04-11T05:12:37.845Z,38.87
2018-04-11T05:15:05.346Z,33.20
2018-04-11T05:17:32.839Z,37.97
2018-04-11T05:20:00.345Z,36.83
2018-04-11T05:22:27.821Z,36.83
2018-04-11T05:24:55.327Z,35.37
2018-04-11T05:27:22.822Z,39.13
2018-04-11T05:29:50.321Z,37.03
2018-04-11T05:32:18.214Z,35.37
2018-04-11T05:34:45.702Z,37.53
2018-04-11T05:37:13.317Z,35.50
2018-04-11T05:39:40.822Z,40.10
2018-04-11T05:42:08.327Z,37.80
2018-04-11T05:44:35.816Z,38.57
2018-04-11T05:47:03.315Z,37.67
2018-04-11T05:49:31.208Z,37.73
2018-04-11T05:51:58.689Z,38.13
2018-04-11T05:54:26.183Z,31.77
2018-04-11T05:56:53.675Z,35.60
2018-04-11T05:59:21.206Z,38.90
2018-04-11T06:01:48.681Z,34.93
2018-04-11T06:04:16.568Z,37.83
2018-04-11T06:06:44.070Z,33.20
2018-04-11T06:09:11.607Z,35.87
2018-04-11T06:11:39.092Z,31.70
2018-04-11T06:14:06.588Z,34.43
2018-04-11T06:16:34.102Z,37.47
2018-04-11T06:19:01.607Z,38.10
2018-04-11T06:21:29.101Z,38.80
2018-04-11T06:23:56.595Z,40.13
2018-04-11T06:26:24.482Z,32.47
2018-04-11T06:28:51.997Z,36.67
2018-04-11T06:31:19.515Z,35.60
2018-04-11T06:33:47.037Z,33.40
2018-04-11T06:36:14.514Z,30.93
2018-04-11T06:38:42.025Z,36.23
2018-04-11T06:41:09.503Z,38.73
2018-04-11T06:43:37.388Z,37.37
2018-04-11T06:46:05.286Z,33.83
2018-04-11T06:48:32.775Z,35.53
2018-04-11T06:51:00.286Z,26.63
2018-04-11T06:53:27.774Z,34.77
2018-04-11T06:55:55.255Z,19.87
2018-04-11T06:58:22.734Z,32.20
2018-04-11T07:00:50.679Z,31.13
2018-04-11T07:03:18.174Z,32.47
2018-04-11T07:05:45.659Z,30.50
2018-04-11T07:08:13.147Z,29.53
2018-04-11T07:10:40.623Z,32.70
2018-04-11T07:13:08.503Z,31.93
2018-04-11T07:15:36.427Z,30.53
2018-04-11T07:18:03.909Z,26.87
2018-04-11T07:20:31.789Z,30.07
2018-04-11T07:22:59.668Z,28.83
2018-04-11T07:25:27.140Z,30.17
2018-04-11T07:27:54.622Z,25.93
2018-04-11T07:30:22.100Z,27.97
2018-04-11T07:32:49.580Z,29.97
2018-04-11T07:35:17.457Z,27.67
2018-04-11T07:37:44.954Z,29.00
2018-04-11T07:40:12.464Z,21.70
2018-04-11T07:42:40.354Z,24.47
2018-04-11T07:45:07.870Z,22.87
2018-04-11T07:47:35.747Z,23.87
2018-04-11T07:50:03.690Z,16.10
2018-04-11T07:52:31.185Z,24.30
2018-04-11T07:54:58.654Z,26.43
2018-04-11T07:57:26.160Z,26.50
2018-04-11T07:59:53.695Z,24.53
2018-04-11T08:02:21.186Z,24.23
2018-04-11T08:04:48.677Z,25.90
2018-04-11T08:07:16.158Z,26.60
2018-04-11T08:09:43.651Z,23.23
2018-04-11T08:12:11.141Z,24.73
2018-04-11T08:14:39.879Z,25.27
2018-04-11T08:17:07.370Z,22.87
2018-04-11T08:19:35.254Z,24.77
2018-04-11T08:22:02.757Z,25.87
2018-04-11T08:24:30.250Z,21.13
2018-04-11T08:26:58.177Z,23.40
2018-04-11T08:29:26.352Z,22.60
2018-04-11T08:31:53.887Z,23.20
2018-04-11T08:34:21.405Z,26.67
2018-04-11T08:36:49.291Z,22.63
2018-04-11T08:39:17.205Z,23.67
2018-04-11T08:41:44.700Z,20.50
2018-04-11T08:44:12.600Z,20.73
2018-04-11T08:46:40.075Z,13.33
2018-04-11T08:49:07.586Z,16.80
2018-04-11T08:51:35.463Z,15.20
2018-04-11T08:54:02.973Z,16.97
2018-04-11T08:56:30.478Z,22.60
2018-04-11T08:58:57.970Z,17.07
2018-04-11T09:01:25.515Z,20.43
2018-04-11T09:03:53.012Z,18.40
2018-04-11T09:06:20.487Z,20.40
2018-04-11T09:08:48.378Z,17.57
2018-04-11T09:11:15.954Z,20.87
2018-04-11T09:13:44.349Z,20.43
2018-04-11T09:16:11.833Z,21.33
2018-04-11T09:18:39.397Z,20.00
2018-04-11T09:21:06.872Z,16.40
2018-04-11T09:23:34.748Z,19.00
2018-04-11T09:26:02.656Z,19.20
2018-04-11T09:28:32.072Z,22.13
2018-04-11T09:31:00.154Z,18.23
2018-04-11T09:33:27.670Z,18.50
2018-04-11T09:35:55.159Z,17.77
2018-04-11T09:38:23.485Z,17.00
2018-04-11T09:40:51.005Z,19.63
2018-04-11T09:43:18.477Z,19.30
2018-04-11T09:45:45.958Z,21.43
2018-04-11T09:48:13.465Z,23.43
2018-04-11T09:50:40.953Z,22.63
2018-04-11T09:53:08.825Z,22.60
2018-04-11T09:55:37.609Z,21.93
2018-04-11T09:58:05.488Z,22.60
2018-04-11T10:00:32.967Z,24.97
2018-04-11T10:03:06.087Z,22.97
2018-04-11T10:05:33.609Z,24.00
2018-04-11T10:08:01.084Z,25.23
2018-04-11T10:10:28.580Z,24.47
2018-04-11T10:12:56.094Z,24.90
2018-04-11T10:15:24.413Z,27.43
2018-04-11T10:17:53.288Z,25.47
2018-04-11T10:20:20.793Z,24.10
2018-04-11T10:22:48.276Z,25.60
2018-04-11T10:25:15.794Z,26.50
2018-04-11T10:27:43.663Z,27.00
2018-04-11T10:30:11.164Z,27.07
2018-04-11T10:32:38.697Z,27.00
2018-04-11T10:35:06.189Z,25.67
2018-04-11T10:37:33.675Z,26.00
2018-04-11T10:40:01.578Z,28.23
2018-04-11T10:42:29.061Z,27.90
2018-04-11T10:44:56.561Z,27.63
2018-04-11T10:47:24.501Z,29.47
2018-04-11T10:49:51.971Z,28.37
2018-04-11T10:52:19.510Z,26.77
2018-04-11T10:54:46.995Z,22.50
2018-04-11T10:57:14.500Z,29.23
2018-04-11T10:59:42.022Z,25.43
2018-04-11T11:02:09.898Z,27.73
2018-04-11T11:04:37.387Z,27.07
2018-04-11T11:07:04.910Z,23.83
2018-04-11T11:09:32.398Z,23.67
2018-04-11T11:11:59.893Z,27.53
2018-04-11T11:14:27.412Z,22.27
2018-04-11T11:16:58.753Z,24.43
2018-04-11T11:19:26.295Z,18.70
2018-04-11T11:21:53.823Z,22.30
2018-04-11T11:24:21.313Z,23.00
2018-04-11T11:26:48.795Z,19.97
2018-04-11T11:29:16.303Z,23.60
2018-04-11T11:31:44.218Z,23.50
2018-04-11T11:34:11.709Z,22.70
2018-04-11T11:36:39.202Z,22.57
2018-04-11T11:39:06.712Z,23.07
2018-04-11T11:41:34.214Z,15.47
2018-04-11T11:44:01.713Z,22.93
2018-04-11T11:46:29.225Z,17.63
2018-04-11T11:48:57.094Z,18.73
2018-04-11T11:51:24.579Z,18.53
2018-04-11T11:53:52.114Z,21.57
2018-04-11T11:56:19.622Z,18.40
2018-04-11T11:58:50.577Z,22.50
2018-04-11T12:01:18.096Z,23.57
2018-04-11T12:03:45.602Z,21.40
2018-04-11T12:06:13.479Z,24.10
2018-04-11T12:08:41.383Z,22.17
2018-04-11T12:11:08.897Z,24.37
2018-04-11T12:13:36.799Z,25.77
2018-04-11T12:16:04.335Z,24.30
2018-04-11T12:18:31.847Z,25.27
2018-04-11T12:20:59.337Z,20.23
2018-04-11T12:23:27.253Z,25.03
2018-04-11T12:25:55.004Z,23.13
2018-04-11T12:28:22.524Z,23.40
2018-04-11T12:30:50.078Z,25.53
2018-04-11T12:33:17.595Z,27.00
2018-04-11T12:35:45.216Z,27.20
2018-04-11T12:38:12.695Z,23.87
2018-04-11T12:40:41.738Z,26.53
2018-04-11T12:43:09.251Z,26.50
2018-04-11T12:45:36.747Z,27.83
2018-04-11T12:48:04.272Z,25.97
2018-04-11T12:50:31.779Z,23.27
2018-04-11T12:52:59.311Z,23.90
2018-04-11T12:55:26.822Z,25.17
2018-04-11T12:57:54.323Z,23.13
2018-04-11T13:00:21.813Z,30.33
2018-04-11T13:02:51.798Z,29.00
2018-04-11T13:05:19.294Z,31.20
2018-04-11T13:07:46.798Z,30.87
2018-04-11T13:10:14.304Z,31.73
2018-04-11T13:12:42.175Z,25.90
2018-04-11T13:15:10.048Z,30.03
2018-04-11T13:17:37.624Z,32.23
2018-04-11T13:20:05.130Z,29.47
2018-04-11T13:22:32.619Z,31.07
2018-04-11T13:25:00.208Z,35.20
2018-04-11T13:27:27.711Z,35.07
2018-04-11T13:30:06.624Z,34.40
2018-04-11T13:32:34.117Z,33.77
2018-04-11T13:35:01.597Z,36.33
2018-04-11T13:37:29.127Z,35.43
2018-04-11T13:39:57.019Z,34.50
2018-04-11T13:42:24.517Z,37.03
2018-04-11T13:44:52.024Z,38.57
2018-04-11T13:47:20.607Z,34.33
2018-04-11T13:49:48.192Z,37.17
2018-04-11T13:52:15.751Z,37.40
2018-04-11T13:54:43.283Z,39.47
2018-04-11T13:57:10.877Z,37.50
2018-04-11T13:59:38.434Z,37.43
2018-04-11T14:02:06.006Z,39.33
2018-04-11T14:04:33.598Z,38.27
2018-04-11T14:07:01.198Z,35.33
2018-04-11T14:09:28.792Z,37.40
2018-04-11T14:12:11.176Z,40.63
2018-04-11T14:14:38.734Z,37.67
2018-04-11T14:17:06.355Z,38.47
2018-04-11T14:19:34.023Z,34.83
2018-04-11T14:22:01.602Z,39.57
2018-04-11T14:24:29.113Z,25.70
2018-04-11T14:26:57.013Z,33.43
2018-04-11T14:29:24.526Z,33.13
2018-04-11T14:31:52.435Z,37.40
2018-04-11T14:34:19.963Z,29.00
2018-04-11T14:36:47.880Z,42.77
2018-04-11T14:39:15.436Z,41.20
2018-04-11T14:41:43.056Z,37.43
2018-04-11T14:44:10.599Z,33.83
2018-04-11T14:46:38.156Z,41.57
2018-04-11T14:49:05.684Z,39.43
2018-04-11T14:51:33.164Z,34.27
2018-04-11T14:54:00.653Z,32.03
2018-04-11T14:56:28.578Z,37.17
2018-04-11T14:58:56.076Z,44.30
2018-04-11T15:01:23.969Z,44.00
2018-04-11T15:03:51.453Z,43.80
2018-04-11T15:06:18.977Z,30.70
2018-04-11T15:08:46.446Z,42.07
2018-04-11T15:11:13.924Z,45.37
2018-04-11T15:13:41.420Z,44.17
2018-04-11T15:16:09.301Z,45.57
2018-04-11T15:18:37.218Z,45.27
2018-04-11T15:21:04.732Z,44.47
2018-04-11T15:23:32.233Z,43.53
2018-04-11T15:26:00.151Z,41.80
2018-04-11T15:28:27.648Z,41.70
2018-04-11T15:30:55.298Z,34.97
2018-04-11T15:33:22.780Z,40.43
2018-04-11T15:35:50.279Z,37.70
2018-04-11T15:38:18.201Z,43.83
2018-04-11T15:40:45.675Z,38.73
2018-04-11T15:43:13.176Z,43.80
2018-04-11T15:45:40.693Z,45.63
2018-04-11T15:48:08.183Z,44.80
2018-04-11T15:50:35.670Z,37.17
2018-04-11T15:53:03.183Z,32.33
2018-04-11T15:55:31.091Z,35.03
2018-04-11T15:57:58.639Z,37.33
2018-04-11T16:00:26.167Z,42.37
2018-04-11T16:02:54.061Z,38.37
2018-04-11T16:05:21.600Z,39.50
2018-04-11T16:07:49.091Z,39.93
2018-04-11T16:10:16.623Z,32.10
2018-04-11T16:12:44.107Z,39.77
2018-04-11T16:15:11.584Z,33.17
2018-04-11T16:17:39.100Z,41.40
2018-04-11T16:20:06.602Z,37.87
2018-04-11T16:22:34.107Z,42.43
2018-04-11T16:25:01.583Z,41.47
2018-04-11T16:27:29.088Z,44.73
2018-04-11T16:29:56.621Z,39.60
2018-04-11T16:32:24.117Z,43.40
2018-04-11T16:34:52.014Z,44.53
2018-04-11T16:37:19.544Z,43.77
2018-04-11T16:39:47.039Z,46.00
2018-04-11T16:42:15.336Z,38.90
2018-04-11T16:44:42.866Z,40.80
2018-04-11T16:47:10.373Z,45.00
2018-04-11T16:49:37.882Z,37.97
2018-04-11T16:52:05.389Z,41.47
2018-04-11T16:54:32.872Z,43.33
2018-04-11T16:57:00.797Z,43.47
2018-04-11T16:59:28.310Z,40.33
2018-04-11T17:01:55.808Z,41.23
2018-04-11T17:04:23.447Z,42.47
2018-04-11T17:06:50.929Z,40.97
2018-04-11T17:09:18.476Z,38.77
2018-04-11T17:11:46.197Z,33.00
2018-04-11T17:14:13.697Z,41.57
2018-04-11T17:16:41.196Z,36.83
2018-04-11T17:19:09.139Z,36.40
2018-04-11T17:21:48.502Z,37.40
2018-04-11T17:24:28.263Z,38.13
2018-04-11T17:27:07.512Z,35.97
2018-04-11T17:29:47.744Z,32.53
2018-04-11T17:32:15.269Z,21.43
2018-04-11T17:34:42.767Z,32.40
2018-04-11T17:37:10.294Z,36.90
2018-04-11T17:39:37.810Z,39.67
2018-04-11T17:42:05.306Z,39.83
2018-04-11T17:44:33.209Z,38.67
2018-04-11T17:47:00.784Z,42.23
2018-04-11T17:49:28.302Z,33.17
2018-04-11T17:51:56.223Z,38.47
2018-04-11T17:54:25.628Z,45.33
2018-04-11T17:56:53.139Z,43.53
2018-04-11T17:59:21.014Z,42.50
2018-04-11T18:01:48.524Z,46.57
2018-04-11T18:04:16.028Z,43.30
2018-04-11T18:06:43.536Z,41.97
2018-04-11T18:09:11.041Z,43.80
2018-04-11T18:11:38.537Z,40.30
2018-04-11T18:14:06.031Z,41.93
2018-04-11T18:16:33.529Z,39.87
2018-04-11T18:19:01.018Z,42.10
2018-04-11T18:21:28.534Z,42.57
2018-04-11T18:23:56.073Z,41.93
2018-04-11T18:26:23.944Z,40.97
2018-04-11T18:28:51.476Z,43.87
2018-04-11T18:31:18.957Z,40.60
2018-04-11T18:33:46.858Z,41.90
2018-04-11T18:36:14.364Z,41.47
2018-04-11T18:38:41.851Z,41.43
2018-04-11T18:41:09.350Z,41.67
2018-04-11T18:43:36.848Z,41.87
2018-04-11T18:46:04.363Z,41.90
2018-04-11T18:48:31.874Z,43.43
2018-04-11T18:51:00.073Z,42.33
2018-04-11T18:53:27.657Z,43.17
2018-04-11T18:55:55.160Z,41.70
2018-04-11T18:58:23.084Z,42.03
2018-04-11T19:00:50.585Z,40.60
2018-04-11T19:03:18.496Z,39.13
2018-04-11T19:05:46.014Z,38.93
2018-04-11T19:08:13.529Z,34.23
2018-04-11T19:10:41.082Z,28.67
2018-04-11T19:13:08.630Z,36.50
2018-04-11T19:15:36.122Z,33.40
2018-04-11T19:18:03.622Z,32.20
2018-04-11T19:20:31.106Z,24.30
2018-04-11T19:22:58.634Z,27.87
2018-04-11T19:25:26.127Z,30.27
2018-04-11T19:27:53.638Z,30.77
2018-04-11T19:30:21.147Z,26.83
2018-04-11T19:32:48.627Z,19.97
2018-04-11T19:35:16.139Z,19.73
2018-04-11T19:37:43.672Z,23.67
2018-04-11T19:40:11.166Z,27.37
2018-04-11T19:42:38.660Z,24.80
2018-04-11T19:45:06.599Z,30.97
2018-04-11T19:47:34.083Z,19.93
2018-04-11T19:50:01.627Z,25.87
2018-04-11T19:52:29.109Z,21.97
2018-04-11T19:54:57.009Z,31.87
2018-04-11T19:57:24.479Z,35.67
2018-04-11T19:59:51.968Z,28.87
2018-04-11T20:02:19.452Z,31.97
2018-04-11T20:04:47.025Z,38.63
2018-04-11T20:07:14.528Z,41.80
2018-04-11T20:09:42.039Z,40.70
2018-04-11T20:12:09.543Z,29.23
2018-04-11T20:14:37.027Z,41.43
2018-04-11T20:17:05.900Z,44.20
2018-04-11T20:19:33.376Z,42.30
2018-04-11T20:22:01.256Z,39.97
2018-04-11T20:24:28.778Z,42.20
2018-04-11T20:26:56.251Z,44.63
2018-04-11T20:29:23.739Z,42.47
2018-04-11T20:31:51.234Z,37.17
2018-04-11T20:34:18.737Z,42.00
2018-04-11T20:36:46.711Z,43.90
2018-04-11T20:39:14.210Z,39.43
2018-04-11T20:41:41.710Z,43.63
2018-04-11T20:44:09.587Z,42.17
2018-04-11T20:46:37.516Z,44.23
2018-04-11T20:49:05.010Z,42.83
2018-04-11T20:51:34.043Z,43.83
2018-04-11T20:54:01.567Z,37.70
2018-04-11T20:56:29.473Z,48.73
2018-04-11T20:58:56.988Z,47.10
2018-04-11T21:01:24.890Z,46.57
2018-04-11T21:03:52.362Z,44.50
2018-04-11T21:06:19.858Z,47.27
2018-04-11T21:08:47.754Z,42.57
2018-04-11T21:11:15.231Z,45.20
2018-04-11T21:13:42.730Z,46.10
2018-04-11T21:16:11.502Z,45.30
2018-04-11T21:18:39.036Z,47.53
2018-04-11T21:21:06.522Z,50.77
2018-04-11T21:23:34.007Z,49.13
2018-04-11T21:26:01.513Z,48.83
2018-04-11T21:28:28.993Z,48.23
2018-04-11T21:30:56.467Z,48.10
2018-04-11T21:33:24.363Z,49.63
2018-04-11T21:35:51.895Z,47.80
2018-04-11T21:38:19.786Z,50.27
2018-04-11T21:40:47.283Z,47.20
2018-04-11T21:43:14.779Z,47.43
2018-04-11T21:45:42.651Z,45.67
2018-04-11T21:48:10.549Z,48.40
2018-04-11T21:50:38.097Z,46.97
2018-04-11T21:53:05.731Z,37.10
2018-04-11T21:55:33.239Z,44.37
2018-04-11T21:58:00.715Z,44.50
2018-04-11T22:00:28.209Z,42.90
2018-04-11T22:02:56.090Z,41.90
2018-04-11T22:05:23.575Z,42.87
2018-04-11T22:07:51.082Z,45.13
2018-04-11T22:10:18.972Z,45.00
2018-04-11T22:12:46.490Z,40.00
2018-04-11T22:15:13.997Z,45.17
2018-04-11T22:17:42.399Z,41.77
2018-04-11T22:20:10.516Z,41.80
2018-04-11T22:22:38.409Z,43.03
2018-04-11T22:25:05.909Z,41.90
2018-04-11T22:27:33.389Z,42.93
2018-04-11T22:30:00.919Z,41.70
2018-04-11T22:32:28.413Z,40.23
2018-04-11T22:34:56.305Z,38.60
2018-04-11T22:37:23.809Z,43.33
2018-04-11T22:39:51.325Z,41.30
2018-04-11T22:42:18.883Z,41.70
2018-04-11T22:44:46.381Z,42.63
2018-04-11T22:47:13.884Z,39.90
2018-04-11T22:49:41.444Z,44.20
2018-04-11T22:52:08.915Z,45.23
2018-04-11T22:54:36.415Z,41.80
2018-04-11T22:57:03.905Z,43.37
2018-04-11T22:59:31.418Z,44.23
2018-04-11T23:01:58.923Z,43.07
2018-04-11T23:04:26.800Z,45.20
2018-04-11T23:06:54.407Z,42.73
2018-04-11T23:09:22.391Z,44.03
2018-04-11T23:12:05.496Z,43.63
2018-04-11T23:14:33.088Z,44.20
2018-04-11T23:17:01.034Z,46.03
2018-04-11T23:19:28.973Z,44.50
2018-04-11T23:21:56.521Z,42.30
2018-04-11T23:24:24.017Z,45.17
2018-04-11T23:26:51.534Z,42.27
2018-04-11T23:29:19.050Z,41.43
2018-04-11T23:31:46.944Z,41.97
2018-04-11T23:34:14.439Z,43.93
2018-04-11T23:36:44.021Z,47.17
2018-04-11T23:39:13.426Z,46.90
2018-04-11T23:41:40.970Z,43.23
2018-04-11T23:44:08.477Z,45.63
2018-04-11T23:46:35.966Z,45.20
2018-04-11T23:49:03.833Z,44.93
2018-04-11T23:51:31.729Z,47.13
2018-04-11T23:53:59.207Z,46.43
2018-04-11T23:56:26.714Z,43.43
2018-04-11T23:58:54.225Z,44.67
